createdAt,value
2018-09-11T00:00:13.261Z,2.80
2018-09-11T00:02:41.798Z,3.07
2018-09-11T00:05:11.309Z,2.50
2018-09-11T00:07:39.869Z,1.80
2018-09-11T00:10:08.757Z,2.83
2018-09-11T00:12:37.282Z,2.23
2018-09-11T00:15:06.747Z,2.03
2018-09-11T00:17:36.113Z,2.00
2018-09-11T00:20:04.671Z,2.10
2018-09-11T00:22:33.938Z,2.57
2018-09-11T00:25:02.378Z,2.17
2018-09-11T00:27:31.739Z,2.70
2018-09-11T00:30:00.250Z,1.60
2018-09-11T00:32:28.874Z,2.20
2018-09-11T00:34:57.322Z,2.50
2018-09-11T00:37:26.092Z,1.97
2018-09-11T00:39:54.561Z,2.17
2018-09-11T00:42:23.171Z,1.90
2018-09-11T00:44:51.674Z,2.70
2018-09-11T00:47:20.178Z,1.90
2018-09-11T00:49:48.754Z,2.33
2018-09-11T00:52:18.672Z,2.27
2018-09-11T00:54:47.890Z,2.20
2018-09-11T00:57:16.368Z,2.23
2018-09-11T00:59:44.810Z,2.37
2018-09-11T01:02:13.309Z,1.83
2018-09-11T01:04:41.819Z,2.33
2018-09-11T01:07:10.255Z,3.30
2018-09-11T01:09:38.697Z,2.33
2018-09-11T01:12:07.806Z,1.73
2018-09-11T01:14:36.818Z,2.00
2018-09-11T01:17:05.295Z,2.03
2018-09-11T01:19:33.805Z,1.93
2018-09-11T01:22:02.286Z,1.70
2018-09-11T01:24:31.496Z,2.33
2018-09-11T01:27:01.440Z,2.10
2018-09-11T01:29:29.996Z,2.30
2018-09-11T01:31:58.469Z,2.30
2018-09-11T01:34:26.982Z,1.80
2018-09-11T01:36:55.547Z,2.53
2018-09-11T01:39:24.020Z,2.13
2018-09-11T01:41:53.301Z,2.33
2018-09-11T01:44:21.785Z,1.87
2018-09-11T01:46:50.247Z,2.53
2018-09-11T01:49:20.044Z,2.40
2018-09-11T01:51:49.602Z,2.50
2018-09-11T01:54:18.143Z,2.30
2018-09-11T01:56:46.638Z,2.20
2018-09-11T01:59:15.091Z,1.83
2018-09-11T02:01:43.736Z,2.30
2018-09-11T02:04:12.213Z,2.37
2018-09-11T02:06:40.717Z,2.10
2018-09-11T02:09:13.016Z,2.50
2018-09-11T02:11:41.579Z,2.33
2018-09-11T02:14:10.089Z,2.07
2018-09-11T02:16:39.977Z,2.07
2018-09-11T02:19:08.532Z,2.57
2018-09-11T02:21:37.003Z,1.87
2018-09-11T02:24:05.504Z,3.50
2018-09-11T02:26:33.999Z,3.07
2018-09-11T02:29:02.603Z,2.30
2018-09-11T02:31:31.624Z,2.40
2018-09-11T02:34:00.234Z,2.60
2018-09-11T02:36:28.752Z,2.40
2018-09-11T02:38:57.209Z,2.53
2018-09-11T02:41:25.677Z,3.00
2018-09-11T02:43:54.251Z,2.07
2018-09-11T02:46:22.789Z,2.70
2018-09-11T02:48:51.306Z,2.97
2018-09-11T02:51:19.840Z,2.70
2018-09-11T02:53:48.390Z,3.10
2018-09-11T02:56:16.881Z,2.33
2018-09-11T02:58:45.361Z,2.50
2018-09-11T03:01:14.777Z,2.07
2018-09-11T03:03:43.377Z,2.53
2018-09-11T03:06:11.915Z,2.63
2018-09-11T03:08:40.374Z,2.13
2018-09-11T03:11:09.410Z,2.57
2018-09-11T03:13:37.938Z,2.70
2018-09-11T03:16:06.488Z,2.07
2018-09-11T03:18:35.071Z,3.00
2018-09-11T03:21:03.585Z,2.17
2018-09-11T03:23:32.090Z,2.30
2018-09-11T03:26:00.538Z,2.40
2018-09-11T03:28:29.038Z,2.40
2018-09-11T03:30:57.541Z,2.53
2018-09-11T03:33:26.062Z,2.00
2018-09-11T03:35:54.575Z,2.87
2018-09-11T03:38:23.050Z,4.03
2018-09-11T03:40:51.552Z,3.20
2018-09-11T03:43:20.090Z,3.00
2018-09-11T03:45:50.419Z,3.03
2018-09-11T03:48:21.134Z,2.80
2018-09-11T03:50:50.776Z,3.17
2018-09-11T03:53:19.403Z,4.03
2018-09-11T03:55:48.281Z,3.30
2018-09-11T03:58:17.822Z,3.00
2018-09-11T04:00:46.295Z,2.70
2018-09-11T04:03:14.800Z,2.30
2018-09-11T04:05:43.265Z,2.63
2018-09-11T04:08:12.196Z,2.50
2018-09-11T04:10:40.639Z,2.93
2018-09-11T04:13:09.180Z,2.57
2018-09-11T04:15:37.662Z,2.43
2018-09-11T04:18:13.224Z,3.03
2018-09-11T04:20:42.672Z,3.53
2018-09-11T04:23:11.822Z,2.90
2018-09-11T04:25:41.102Z,3.67
2018-09-11T04:28:09.570Z,3.43
2018-09-11T04:30:38.038Z,2.93
2018-09-11T04:33:06.587Z,2.63
2018-09-11T04:35:35.091Z,2.50
2018-09-11T04:38:03.869Z,4.07
2018-09-11T04:40:32.374Z,2.47
2018-09-11T04:43:01.831Z,2.87
2018-09-11T04:45:30.274Z,3.73
2018-09-11T04:47:58.746Z,3.27
2018-09-11T04:50:27.249Z,3.60
2018-09-11T04:52:55.802Z,3.10
2018-09-11T04:55:24.369Z,2.90
2018-09-11T04:57:52.863Z,4.43
2018-09-11T05:00:21.330Z,3.30
2018-09-11T05:02:56.341Z,3.83
2018-09-11T05:05:24.834Z,3.97
2018-09-11T05:07:53.387Z,3.83
2018-09-11T05:10:23.614Z,5.17
2018-09-11T05:12:52.101Z,3.60
2018-09-11T05:15:20.666Z,3.10
2018-09-11T05:17:49.234Z,2.90
2018-09-11T05:20:17.805Z,2.67
2018-09-11T05:22:46.383Z,3.30
2018-09-11T05:25:14.984Z,3.67
2018-09-11T05:27:44.533Z,2.70
2018-09-11T05:30:13.047Z,2.43
2018-09-11T05:32:41.787Z,2.80
2018-09-11T05:35:10.534Z,2.80
2018-09-11T05:37:39.098Z,3.40
2018-09-11T05:40:07.722Z,3.20
2018-09-11T05:42:36.589Z,3.00
2018-09-11T05:45:10.315Z,2.97
2018-09-11T05:47:38.788Z,3.57
2018-09-11T05:50:07.370Z,3.70
2018-09-11T05:52:36.902Z,3.57
2018-09-11T05:55:06.556Z,3.30
2018-09-11T05:57:35.050Z,3.50
2018-09-11T06:02:42.199Z,3.40
2018-09-11T06:05:10.701Z,5.10
2018-09-11T06:07:39.234Z,3.23
2018-09-11T06:10:08.102Z,4.77
2018-09-11T06:12:37.667Z,4.07
2018-09-11T06:15:08.416Z,2.90
2018-09-11T06:17:36.882Z,4.73
2018-09-11T06:20:06.066Z,3.10
2018-09-11T06:22:35.186Z,3.57
2018-09-11T06:25:04.040Z,3.80
2018-09-11T06:27:33.209Z,3.70
2018-09-11T06:30:01.648Z,3.73
2018-09-11T06:32:30.136Z,3.83
2018-09-11T06:34:58.611Z,4.57
2018-09-11T06:37:27.093Z,4.30
2018-09-11T06:39:55.629Z,3.47
2018-09-11T06:42:24.345Z,3.60
2018-09-11T06:44:52.854Z,4.70
2018-09-11T06:47:21.372Z,3.33
2018-09-11T06:49:49.835Z,3.50
2018-09-11T06:52:18.368Z,4.07
2018-09-11T06:57:22.045Z,4.90
2018-09-11T06:59:50.622Z,4.97
2018-09-11T07:02:19.468Z,3.90
2018-09-11T07:04:47.981Z,3.40
2018-09-11T07:07:16.522Z,3.43
2018-09-11T07:09:45.015Z,4.47
2018-09-11T07:12:13.521Z,3.47
2018-09-11T07:14:42.039Z,2.50
2018-09-11T07:17:10.440Z,3.07
2018-09-11T07:19:39.053Z,2.60
2018-09-11T07:22:07.613Z,2.87
2018-09-11T07:24:36.464Z,2.90
2018-09-11T07:27:10.555Z,4.80
2018-09-11T07:29:39.076Z,3.37
2018-09-11T07:32:07.616Z,3.30
2018-09-11T07:34:36.106Z,3.13
2018-09-11T07:37:05.296Z,3.83
2018-09-11T07:39:33.794Z,2.90
2018-09-11T07:42:02.920Z,2.90
2018-09-11T07:44:32.000Z,3.33
2018-09-11T07:47:00.484Z,3.30
2018-09-11T07:49:28.933Z,2.70
2018-09-11T07:51:57.545Z,3.50
2018-09-11T07:54:26.073Z,2.40
2018-09-11T07:56:54.624Z,3.60
2018-09-11T07:59:23.828Z,2.77
2018-09-11T08:01:52.337Z,2.67
2018-09-11T08:04:21.366Z,2.47
2018-09-11T08:06:49.842Z,2.73
2018-09-11T08:09:19.406Z,2.93
2018-09-11T08:11:47.898Z,3.47
2018-09-11T08:14:16.400Z,3.00
2018-09-11T08:16:45.412Z,1.90
2018-09-11T08:19:13.903Z,2.57
2018-09-11T08:21:42.420Z,1.90
2018-09-11T08:24:10.881Z,2.40
2018-09-11T08:26:39.352Z,2.37
2018-09-11T08:29:08.014Z,1.73
2018-09-11T08:31:36.458Z,2.43
2018-09-11T08:34:04.934Z,2.40
2018-09-11T08:36:35.459Z,1.70
2018-09-11T08:39:05.875Z,1.40
2018-09-11T08:41:34.954Z,1.57
2018-09-11T08:44:03.546Z,1.70
2018-09-11T08:46:33.083Z,1.60
2018-09-11T08:49:01.710Z,1.70
2018-09-11T08:51:30.268Z,1.67
2018-09-11T08:53:58.776Z,1.60
2018-09-11T08:56:27.318Z,1.53
2018-09-11T08:58:55.835Z,1.63
2018-09-11T09:01:24.972Z,1.30
2018-09-11T09:03:53.489Z,1.43
2018-09-11T09:06:21.951Z,1.23
2018-09-11T09:08:50.437Z,1.30
2018-09-11T09:11:18.956Z,1.63
2018-09-11T09:13:47.473Z,1.57
2018-09-11T09:16:16.115Z,1.63
2018-09-11T09:18:45.226Z,1.57
2018-09-11T09:21:13.928Z,1.40
2018-09-11T09:23:42.430Z,1.60
2018-09-11T09:26:10.973Z,2.10
2018-09-11T09:28:39.596Z,2.10
2018-09-11T09:31:08.110Z,1.63
2018-09-11T09:33:37.265Z,1.30
2018-09-11T09:36:10.752Z,1.67
2018-09-11T09:38:39.356Z,1.20
2018-09-11T09:41:07.909Z,0.90
2018-09-11T09:43:37.010Z,0.90
2018-09-11T09:46:05.743Z,1.53
2018-09-11T09:48:34.575Z,1.57
2018-09-11T09:51:03.125Z,1.40
2018-09-11T09:53:31.801Z,1.67
2018-09-11T09:56:00.256Z,1.03
2018-09-11T09:58:29.767Z,1.20
2018-09-11T10:01:04.976Z,1.40
2018-09-11T10:03:33.479Z,1.00
2018-09-11T10:06:02.367Z,1.30
2018-09-11T10:08:30.889Z,1.30
2018-09-11T10:11:00.201Z,1.30
2018-09-11T10:13:29.734Z,1.00
2018-09-11T10:15:58.385Z,1.20
2018-09-11T10:18:26.830Z,1.53
2018-09-11T10:20:55.309Z,1.00
2018-09-11T10:23:23.982Z,1.30
2018-09-11T10:25:52.863Z,1.40
2018-09-11T10:28:22.388Z,1.13
2018-09-11T10:30:50.877Z,1.30
2018-09-11T10:33:20.018Z,1.30
2018-09-11T10:35:49.850Z,1.33
2018-09-11T10:38:18.825Z,1.10
2018-09-11T10:40:47.647Z,1.13
2018-09-11T10:43:16.203Z,1.03
2018-09-11T10:45:44.970Z,1.50
2018-09-11T10:48:14.061Z,1.30
2018-09-11T10:50:42.560Z,1.27
2018-09-11T10:53:11.096Z,1.70
2018-09-11T10:55:40.440Z,1.23
2018-09-11T10:58:08.928Z,1.40
2018-09-11T11:00:39.205Z,1.57
2018-09-11T11:03:07.686Z,1.30
2018-09-11T11:05:36.173Z,1.30
2018-09-11T11:08:04.659Z,1.23
2018-09-11T11:10:33.263Z,1.20
2018-09-11T11:13:02.272Z,1.40
2018-09-11T11:15:31.305Z,1.83
2018-09-11T11:18:00.026Z,1.23
2018-09-11T11:20:28.737Z,1.37
2018-09-11T11:22:57.594Z,1.47
2018-09-11T11:25:26.464Z,1.13
2018-09-11T11:27:55.388Z,1.30
2018-09-11T11:30:23.827Z,1.30
2018-09-11T11:32:53.291Z,1.50
2018-09-11T11:35:21.774Z,1.57
2018-09-11T11:37:50.373Z,1.40
2018-09-11T11:40:19.030Z,1.53
2018-09-11T11:42:47.543Z,1.80
2018-09-11T11:45:16.160Z,1.50
2018-09-11T11:47:46.399Z,1.70
2018-09-11T11:50:15.114Z,1.27
2018-09-11T11:52:44.111Z,1.27
2018-09-11T11:55:12.697Z,2.13
2018-09-11T11:57:41.828Z,1.80
2018-09-11T12:00:13.456Z,1.87
2018-09-11T12:02:42.864Z,2.37
2018-09-11T12:05:11.327Z,1.60
2018-09-11T12:07:39.985Z,1.67
2018-09-11T12:10:08.610Z,1.83
2018-09-11T12:12:37.150Z,1.63
2018-09-11T12:15:06.665Z,1.90
2018-09-11T12:17:35.122Z,1.80
2018-09-11T12:20:03.882Z,1.70
2018-09-11T12:22:33.652Z,1.37
2018-09-11T12:25:02.794Z,1.50
2018-09-11T12:27:31.314Z,2.40
2018-09-11T12:29:59.831Z,1.40
2018-09-11T12:32:28.364Z,1.40
2018-09-11T12:34:56.951Z,1.60
2018-09-11T12:37:25.767Z,1.57
2018-09-11T12:39:54.346Z,1.87
2018-09-11T12:42:22.871Z,1.67
2018-09-11T12:44:51.581Z,1.90
2018-09-11T12:47:21.427Z,1.83
2018-09-11T12:49:49.509Z,1.67
2018-09-11T12:52:17.994Z,1.60
2018-09-11T12:54:46.590Z,1.40
2018-09-11T12:57:15.993Z,1.60
2018-09-11T12:59:44.491Z,1.80
2018-09-11T13:02:13.064Z,1.53
2018-09-11T13:04:41.566Z,1.90
2018-09-11T13:07:11.114Z,1.60
2018-09-11T13:09:39.617Z,1.57
2018-09-11T13:12:08.198Z,1.47
2018-09-11T13:14:36.696Z,1.60
2018-09-11T13:17:05.253Z,1.70
2018-09-11T13:19:33.992Z,1.50
2018-09-11T13:22:03.239Z,1.60
2018-09-11T13:24:32.137Z,1.40
2018-09-11T13:27:00.841Z,1.50
2018-09-11T13:29:29.362Z,1.50
2018-09-11T13:31:57.813Z,1.30
2018-09-11T13:34:26.505Z,1.10
2018-09-11T13:36:55.325Z,1.50
2018-09-11T13:39:24.789Z,1.30
2018-09-11T13:41:53.327Z,1.60
2018-09-11T13:44:21.896Z,1.50
2018-09-11T13:46:50.431Z,1.70
2018-09-11T13:49:19.569Z,1.70
2018-09-11T13:51:48.071Z,1.97
2018-09-11T13:54:16.741Z,1.80
2018-09-11T13:56:45.894Z,1.40
2018-09-11T13:59:14.541Z,1.90
2018-09-11T14:01:43.165Z,1.63
2018-09-11T14:04:12.771Z,1.90
2018-09-11T14:06:41.685Z,1.93
2018-09-11T14:09:14.055Z,1.13
2018-09-11T14:11:43.170Z,1.60
2018-09-11T14:14:11.908Z,1.33
2018-09-11T14:16:40.997Z,1.70
2018-09-11T14:19:10.128Z,1.50
2018-09-11T14:21:38.913Z,1.97
2018-09-11T14:24:07.388Z,1.60
2018-09-11T14:26:36.088Z,1.70
2018-09-11T14:29:04.841Z,1.30
2018-09-11T14:31:33.420Z,1.47
2018-09-11T14:34:02.167Z,1.47
2018-09-11T14:36:30.714Z,1.40
2018-09-11T14:38:59.224Z,1.17
2018-09-11T14:41:28.905Z,1.70
2018-09-11T14:43:57.447Z,1.23
2018-09-11T14:46:26.003Z,1.50
2018-09-11T14:48:55.305Z,1.67
2018-09-11T14:51:25.213Z,1.30
2018-09-11T14:53:54.309Z,1.60
2018-09-11T14:56:23.050Z,1.53
2018-09-11T14:58:51.770Z,1.60
2018-09-11T15:01:20.324Z,1.63
2018-09-11T15:03:49.714Z,1.30
2018-09-11T15:06:18.315Z,1.70
2018-09-11T15:08:47.871Z,1.60
2018-09-11T15:11:17.113Z,1.50
2018-09-11T15:13:45.628Z,1.40
2018-09-11T15:16:14.119Z,1.70
2018-09-11T15:18:43.313Z,1.50
2018-09-11T15:21:11.837Z,1.30
2018-09-11T15:23:40.402Z,2.20
2018-09-11T15:26:10.549Z,1.83
2018-09-11T15:28:40.791Z,1.07
2018-09-11T15:31:09.450Z,1.40
2018-09-11T15:33:38.027Z,1.50
2018-09-11T15:36:12.619Z,1.60
2018-09-11T15:38:42.357Z,1.97
2018-09-11T15:41:10.940Z,1.33
2018-09-11T15:43:39.555Z,1.30
2018-09-11T15:46:08.143Z,1.50
2018-09-11T15:48:36.718Z,1.50
2018-09-11T15:51:05.872Z,2.10
2018-09-11T15:53:34.394Z,1.50
2018-09-11T15:56:03.889Z,1.67
2018-09-11T15:58:32.422Z,1.53
2018-09-11T16:01:01.174Z,1.60
2018-09-11T16:03:29.878Z,1.50
2018-09-11T16:05:59.019Z,1.47
2018-09-11T16:08:27.770Z,2.40
2018-09-11T16:10:56.308Z,1.40
2018-09-11T16:13:24.883Z,1.43
2018-09-11T16:15:54.725Z,1.30
2018-09-11T16:18:23.344Z,2.03
2018-09-11T16:20:51.823Z,1.30
2018-09-11T16:23:20.252Z,1.60
2018-09-11T16:25:48.718Z,1.53
2018-09-11T16:28:17.882Z,1.33
2018-09-11T16:30:46.594Z,1.70
2018-09-11T16:33:15.357Z,1.80
2018-09-11T16:35:43.825Z,1.47
2018-09-11T16:38:12.299Z,2.13
2018-09-11T16:40:42.160Z,2.00
2018-09-11T16:43:10.744Z,2.10
2018-09-11T16:45:39.324Z,1.20
2018-09-11T16:48:08.061Z,1.63
2018-09-11T16:50:37.419Z,1.90
2018-09-11T16:53:06.010Z,1.30
2018-09-11T16:55:34.731Z,1.67
2018-09-11T16:58:03.352Z,1.50
2018-09-11T17:00:32.324Z,1.50
2018-09-11T17:03:00.848Z,1.40
2018-09-11T17:05:30.241Z,2.40
2018-09-11T17:07:58.913Z,2.20
2018-09-11T17:10:27.458Z,1.83
2018-09-11T17:12:55.999Z,1.63
2018-09-11T17:15:25.017Z,1.37
2018-09-11T17:17:53.560Z,2.00
2018-09-11T17:20:22.130Z,1.70
2018-09-11T17:22:50.645Z,1.77
2018-09-11T17:25:19.206Z,1.73
2018-09-11T17:27:47.766Z,2.50
2018-09-11T17:30:16.328Z,1.90
2018-09-11T17:32:44.894Z,1.20
2018-09-11T17:35:15.029Z,1.70
2018-09-11T17:37:43.530Z,1.90
2018-09-11T17:40:12.117Z,2.17
2018-09-11T17:42:40.722Z,1.77
2018-09-11T17:45:12.531Z,1.57
2018-09-11T17:47:41.135Z,1.97
2018-09-11T17:50:09.765Z,1.60
2018-09-11T17:52:38.335Z,2.57
2018-09-11T17:55:06.894Z,2.10
2018-09-11T17:57:35.387Z,1.60
2018-09-11T18:00:12.750Z,1.60
2018-09-11T18:02:41.913Z,1.73
2018-09-11T18:05:10.441Z,1.50
2018-09-11T18:07:46.058Z,1.70
2018-09-11T18:10:15.134Z,1.30
2018-09-11T18:12:43.722Z,1.60
2018-09-11T18:15:12.254Z,2.33
2018-09-11T18:17:40.788Z,1.90
2018-09-11T18:20:09.413Z,2.27
2018-09-11T18:22:38.158Z,1.13
2018-09-11T18:25:06.750Z,1.83
2018-09-11T18:27:35.324Z,2.10
2018-09-11T18:30:04.099Z,1.67
2018-09-11T18:32:32.620Z,1.87
2018-09-11T18:35:01.176Z,1.57
2018-09-11T18:37:29.781Z,1.60
2018-09-11T18:39:58.326Z,1.83
2018-09-11T18:42:26.823Z,1.43
2018-09-11T18:44:56.194Z,1.40
2018-09-11T18:47:25.274Z,1.57
2018-09-11T18:49:53.822Z,1.67
2018-09-11T18:52:23.011Z,1.87
2018-09-11T18:54:51.574Z,1.50
2018-09-11T18:57:21.535Z,1.77
2018-09-11T18:59:50.849Z,1.70
2018-09-11T19:02:19.334Z,2.07
2018-09-11T19:04:48.524Z,1.80
2018-09-11T19:07:17.007Z,1.83
2018-09-11T19:09:45.529Z,2.07
2018-09-11T19:12:14.652Z,1.40
2018-09-11T19:14:43.153Z,1.80
2018-09-11T19:17:11.690Z,1.47
2018-09-11T19:19:40.240Z,2.00
2018-09-11T19:22:08.791Z,1.97
2018-09-11T19:24:37.347Z,1.50
2018-09-11T19:27:12.630Z,1.60
2018-09-11T19:29:41.826Z,1.77
2018-09-11T19:32:10.587Z,2.87
2018-09-11T19:34:39.097Z,1.80
2018-09-11T19:37:07.780Z,1.90
2018-09-11T19:39:36.400Z,1.97
2018-09-11T19:42:05.014Z,2.20
2018-09-11T19:44:33.583Z,1.50
2018-09-11T19:47:02.200Z,2.50
2018-09-11T19:49:30.783Z,1.97
2018-09-11T19:51:59.828Z,1.80
2018-09-11T19:54:28.341Z,2.10
2018-09-11T19:56:57.899Z,3.63
2018-09-11T19:59:27.003Z,2.13
2018-09-11T20:01:55.680Z,1.43
2018-09-11T20:04:24.515Z,1.83
2018-09-11T20:06:53.073Z,2.40
2018-09-11T20:09:21.587Z,1.90
2018-09-11T20:11:50.481Z,1.90
2018-09-11T20:14:19.071Z,1.80
2018-09-11T20:16:48.554Z,2.43
2018-09-11T20:19:18.075Z,2.30
2018-09-11T20:21:46.622Z,2.63
2018-09-11T20:24:15.117Z,1.80
2018-09-11T20:26:43.672Z,1.77
2018-09-11T20:29:12.155Z,2.07
2018-09-11T20:31:42.131Z,1.80
2018-09-11T20:34:10.626Z,1.83
2018-09-11T20:36:39.146Z,1.80
2018-09-11T20:39:10.626Z,1.73
2018-09-11T20:41:40.035Z,1.80
2018-09-11T20:44:10.619Z,2.23
2018-09-11T20:46:39.457Z,2.70
2018-09-11T20:49:08.053Z,2.70
2018-09-11T20:51:36.560Z,2.23
2018-09-11T20:54:08.280Z,1.80
2018-09-11T20:56:36.796Z,2.53
2018-09-11T20:59:05.272Z,1.80
2018-09-11T21:01:33.782Z,1.90
2018-09-11T21:04:02.391Z,1.73
2018-09-11T21:06:30.889Z,2.10
2018-09-11T21:08:59.366Z,2.00
2018-09-11T21:11:27.908Z,1.90
2018-09-11T21:13:56.427Z,2.40
2018-09-11T21:16:25.140Z,1.70
2018-09-11T21:18:53.636Z,1.70
2018-09-11T21:21:22.231Z,1.70
2018-09-11T21:23:50.701Z,2.00
2018-09-11T21:26:19.201Z,1.83
2018-09-11T21:28:47.721Z,2.00
2018-09-11T21:31:16.190Z,1.90
2018-09-11T21:33:44.673Z,2.10
2018-09-11T21:36:13.163Z,1.50
2018-09-11T21:41:16.478Z,2.23
2018-09-11T21:43:45.062Z,1.90
2018-09-11T21:46:13.578Z,1.60
2018-09-11T21:48:42.234Z,1.57
2018-09-11T21:51:10.826Z,1.50
2018-09-11T21:53:40.233Z,2.00
2018-09-11T21:56:08.790Z,2.13
2018-09-11T21:58:37.511Z,1.70
2018-09-11T22:01:11.705Z,1.60
2018-09-11T22:03:40.186Z,1.60
2018-09-11T22:06:09.654Z,1.67
2018-09-11T22:08:38.228Z,1.97
2018-09-11T22:11:06.775Z,1.90
2018-09-11T22:13:35.338Z,1.50
2018-09-11T22:16:03.850Z,1.60
2018-09-11T22:18:32.957Z,2.03
2018-09-11T22:21:01.570Z,2.77
2018-09-11T22:23:30.164Z,1.93
2018-09-11T22:25:58.673Z,2.13
2018-09-11T22:28:27.261Z,1.50
2018-09-11T22:30:55.793Z,3.10
2018-09-11T22:33:26.154Z,1.60
2018-09-11T22:35:54.661Z,1.83
2018-09-11T22:38:23.693Z,2.10
2018-09-11T22:40:52.566Z,2.20
2018-09-11T22:43:21.469Z,1.80
2018-09-11T22:45:50.449Z,2.00
2018-09-11T22:48:18.970Z,2.40
2018-09-11T22:50:47.486Z,2.10
2018-09-11T22:53:16.015Z,1.90
2018-09-11T22:55:44.722Z,2.20
2018-09-11T22:58:13.953Z,1.97
2018-09-11T23:00:42.474Z,1.70
2018-09-11T23:03:10.934Z,1.80
2018-09-11T23:05:39.383Z,1.80
2018-09-11T23:08:07.922Z,1.60
2018-09-11T23:10:37.170Z,1.93
2018-09-11T23:13:06.662Z,1.97
2018-09-11T23:15:35.175Z,1.67
2018-09-11T23:18:10.886Z,1.77
2018-09-11T23:20:39.703Z,1.93
2018-09-11T23:23:08.206Z,1.53
2018-09-11T23:25:37.223Z,2.00
2018-09-11T23:28:05.728Z,1.47
2018-09-11T23:30:34.462Z,1.80
2018-09-11T23:33:02.909Z,2.30
2018-09-11T23:35:31.424Z,2.43
2018-09-11T23:38:00.726Z,1.50
2018-09-11T23:40:29.244Z,2.03
2018-09-11T23:42:57.741Z,2.50
2018-09-11T23:45:26.210Z,1.90
2018-09-11T23:47:54.732Z,2.20
2018-09-11T23:50:23.282Z,2.60
2018-09-11T23:52:51.825Z,1.90
2018-09-11T23:55:20.247Z,1.83
2018-09-11T23:57:48.753Z,2.10
